Time;durP1;ratioP1;P1;durP2;ratioP2;P2;SDS_P1;SDS_P2;PMS_P1;PMS_P2;Temp;Humidity;BMP_temperature;BMP_pressure;BME280_temperature;BME280_humidity;BME280_pressure;Samples;Min_cycle;Max_cycle;Signal;HPM_P1;HPM_P2
2023/09/08 00:00:20;;;;;;;1999.90;999.90;;;22.50;99.90;;;;;;5094604;28;20020;-79
2023/09/08 00:02:45;;;;;;;1999.90;999.90;;;22.50;99.90;;;;;;5075747;28;20104;-79
2023/09/08 00:05:11;;;;;;;1999.90;999.90;;;22.40;99.90;;;;;;5075264;28;20573;-79
2023/09/08 00:07:36;;;;;;;1999.90;999.90;;;22.40;99.90;;;;;;5075419;28;20060;-74
2023/09/08 00:10:02;;;;;;;1999.90;999.90;;;22.40;99.90;;;;;;5074901;28;20036;-79
2023/09/08 00:12:28;;;;;;;1999.90;999.90;;;22.30;99.90;;;;;;5074318;28;20032;-79
2023/09/08 00:14:54;;;;;;;1999.90;999.90;;;22.30;99.90;;;;;;5085318;28;20027;-79
2023/09/08 00:17:20;;;;;;;1999.90;999.90;;;22.30;99.90;;;;;;5081031;28;20029;-79
2023/09/08 00:19:45;;;;;;;1999.90;999.90;;;22.30;99.90;;;;;;5075031;28;20537;-74
2023/09/08 00:22:11;;;;;;;1999.90;999.90;;;22.20;99.90;;;;;;5072127;28;20473;-74
2023/09/08 00:24:36;;;;;;;1999.90;999.90;;;22.30;99.90;;;;;;5086926;28;20035;-74
2023/09/08 00:27:02;;;;;;;1999.90;999.90;;;22.30;99.90;;;;;;5095694;28;20509;-74
2023/09/08 00:29:28;;;;;;;1999.90;999.90;;;22.30;99.90;;;;;;5095320;28;20150;-79
2023/09/08 00:31:53;;;;;;;1999.90;999.90;;;22.30;99.90;;;;;;5095079;28;20028;-75
2023/09/08 00:34:19;;;;;;;1999.90;999.90;;;22.30;99.90;;;;;;5094951;28;20028;-74
2023/09/08 00:36:44;;;;;;;1999.90;999.90;;;22.20;99.90;;;;;;5094840;28;20534;-78
2023/09/08 00:39:10;;;;;;;1999.90;999.90;;;22.20;99.90;;;;;;5095083;28;20016;-79
2023/09/08 00:41:35;;;;;;;1999.90;999.90;;;22.20;99.90;;;;;;5095278;28;20101;-79
2023/09/08 00:44:01;;;;;;;1999.90;999.90;;;22.20;99.90;;;;;;5094612;28;20098;-79
2023/09/08 00:46:27;;;;;;;1999.90;999.90;;;22.20;99.90;;;;;;5093479;28;20493;-79
2023/09/08 00:48:54;;;;;;;1999.90;999.90;;;22.10;99.90;;;;;;5094795;28;20032;-79
2023/09/08 00:51:20;;;;;;;1999.90;999.90;;;22.10;99.90;;;;;;5095087;28;20030;-79
2023/09/08 00:53:46;;;;;;;1999.90;999.90;;;22.00;99.90;;;;;;5094707;28;20059;-79
2023/09/08 00:56:12;;;;;;;1999.90;999.90;;;22.00;99.90;;;;;;5094359;28;20538;-79
2023/09/08 00:58:37;;;;;;;1999.90;999.90;;;22.00;99.90;;;;;;5088041;28;20040;-74
2023/09/08 01:01:05;;;;;;;1999.90;999.90;;;21.90;99.90;;;;;;5074454;28;20035;-74
2023/09/08 01:03:31;;;;;;;1999.90;999.90;;;21.90;99.90;;;;;;5074142;28;20013;-79
2023/09/08 01:05:57;;;;;;;1999.90;999.90;;;21.80;99.90;;;;;;5074330;28;20105;-79
2023/09/08 01:08:22;;;;;;;1999.90;999.90;;;21.80;99.90;;;;;;5073831;28;20487;-78
2023/09/08 01:10:48;;;;;;;1999.90;999.90;;;21.70;99.90;;;;;;5074103;28;20066;-74
2023/09/08 01:13:14;;;;;;;1999.90;999.90;;;21.70;99.90;;;;;;5075880;28;20028;-75
2023/09/08 01:15:39;;;;;;;1999.90;999.90;;;21.70;99.90;;;;;;5079766;28;20032;-79
2023/09/08 01:18:05;;;;;;;1999.90;999.90;;;21.60;99.90;;;;;;5073922;28;20403;-79
2023/09/08 01:20:58;;;;;;;1999.90;999.90;;;21.60;99.90;;;;;;5073693;28;20027;-79
2023/09/08 01:24:10;;;;;;;1999.90;999.90;;;21.60;99.90;;;;;;5068247;28;20418;-79
2023/09/08 01:26:40;;;;;;;1999.90;999.90;;;21.60;99.90;;;;;;5064879;28;20044;-74
2023/09/08 01:29:08;;;;;;;1999.90;999.90;;;21.60;99.90;;;;;;5093926;28;20016;-79
2023/09/08 01:31:33;;;;;;;1999.90;999.90;;;21.50;99.90;;;;;;5094039;28;20491;-79
2023/09/08 01:34:01;;;;;;;1999.90;999.90;;;21.50;99.90;;;;;;5093599;28;20059;-79
2023/09/08 01:36:27;;;;;;;1999.90;999.90;;;21.50;99.90;;;;;;5093402;28;20020;-74
2023/09/08 01:38:52;;;;;;;1999.90;999.90;;;21.40;99.90;;;;;;5093834;28;20035;-74
2023/09/08 01:41:18;;;;;;;1999.90;999.90;;;21.40;99.90;;;;;;5093687;28;20043;-79
2023/09/08 01:43:43;;;;;;;1999.90;999.90;;;21.40;99.90;;;;;;5093809;28;20099;-79
2023/09/08 01:46:09;;;;;;;1999.90;999.90;;;21.40;99.90;;;;;;5093450;28;20506;-79
2023/09/08 01:48:34;;;;;;;1999.90;999.90;;;21.40;99.90;;;;;;5093476;28;20081;-79
2023/09/08 01:51:00;;;;;;;1999.90;999.90;;;21.40;99.90;;;;;;5093403;28;20027;-74
2023/09/08 01:53:26;;;;;;;1999.90;999.90;;;21.30;99.90;;;;;;5093401;28;20434;-74
2023/09/08 01:55:51;;;;;;;1999.90;999.90;;;21.30;99.90;;;;;;5086567;28;20042;-79
2023/09/08 01:58:17;;;;;;;1999.90;999.90;;;21.30;99.90;;;;;;5072898;28;20066;-79
2023/09/08 02:00:43;;;;;;;1999.90;999.90;;;21.30;99.90;;;;;;5073102;28;20388;-79
2023/09/08 02:03:08;;;;;;;1999.90;999.90;;;21.30;99.90;;;;;;5073393;28;20031;-75
2023/09/08 02:05:38;;;;;;;1999.90;999.90;;;21.30;99.90;;;;;;5072904;28;20048;-75
2023/09/08 02:08:04;;;;;;;1999.90;999.90;;;21.30;99.90;;;;;;5073123;28;20399;-79
2023/09/08 02:10:30;;;;;;;1999.90;999.90;;;21.20;99.90;;;;;;5072785;28;20048;-79
2023/09/08 02:12:55;;;;;;;1999.90;999.90;;;21.20;99.90;;;;;;5073303;28;20032;-79
2023/09/08 02:15:21;;;;;;;1999.90;999.90;;;21.10;99.90;;;;;;5077416;28;20033;-79
2023/09/08 02:17:52;;;;;;;1999.90;999.90;;;21.10;99.90;;;;;;5081530;28;20021;-79
2023/09/08 02:20:18;;;;;;;1999.90;999.90;;;21.00;99.90;;;;;;5072956;28;20020;-79
2023/09/08 02:22:43;;;;;;;1999.90;999.90;;;21.00;99.90;;;;;;5072541;28;20028;-80
2023/09/08 02:25:09;;;;;;;1999.90;999.90;;;21.00;99.90;;;;;;5092311;28;20052;-78
2023/09/08 02:27:34;;;;;;;1999.90;999.90;;;20.90;99.90;;;;;;5094229;28;20036;-74
2023/09/08 02:30:00;;;;;;;1999.90;999.90;;;20.90;99.90;;;;;;5093217;28;20058;-74
2023/09/08 02:32:25;;;;;;;1999.90;999.90;;;20.90;99.90;;;;;;5092908;28;20031;-74
2023/09/08 02:34:52;;;;;;;1999.90;999.90;;;20.90;99.90;;;;;;5097000;28;20071;-79
2023/09/08 02:37:19;;;;;;;1999.90;999.90;;;20.90;99.90;;;;;;5099516;28;20024;-79
2023/09/08 02:39:44;;;;;;;1999.90;999.90;;;21.10;99.90;;;;;;5098483;28;20048;-79
2023/09/08 02:42:10;;;;;;;1999.90;999.90;;;21.10;99.90;;;;;;5094466;28;20064;-75
2023/09/08 02:44:35;;;;;;;1999.90;999.90;;;21.10;99.90;;;;;;5079304;28;20032;-74
2023/09/08 02:47:01;;;;;;;1999.90;999.90;;;21.10;99.90;;;;;;5079326;28;20051;-79
2023/09/08 02:49:27;;;;;;;1999.90;999.90;;;21.10;99.90;;;;;;5079318;28;20032;-79
2023/09/08 02:51:52;;;;;;;1999.90;999.90;;;21.20;99.90;;;;;;5079384;28;20107;-79
2023/09/08 02:54:18;;;;;;;1999.90;999.90;;;21.20;99.90;;;;;;5079409;28;20063;-79
2023/09/08 02:56:43;;;;;;;1999.90;999.90;;;21.20;99.90;;;;;;5079181;28;20028;-74
2023/09/08 02:59:09;;;;;;;1999.90;999.90;;;21.10;99.90;;;;;;5077763;28;20064;-79
2023/09/08 03:01:34;;;;;;;1999.90;999.90;;;21.10;99.90;;;;;;5079177;28;20020;-79
2023/09/08 03:04:00;;;;;;;1999.90;999.90;;;21.10;99.90;;;;;;5078856;28;20036;-74
2023/09/08 03:06:26;;;;;;;1999.90;999.90;;;21.10;99.90;;;;;;5078347;28;20032;-79
2023/09/08 03:08:52;;;;;;;1999.90;999.90;;;21.10;99.90;;;;;;5080017;28;20432;-74
2023/09/08 03:11:17;;;;;;;1999.90;999.90;;;21.10;99.90;;;;;;5080382;28;20078;-75
2023/09/08 03:13:43;;;;;;;1999.90;999.90;;;21.10;99.90;;;;;;5082074;28;20035;-74
2023/09/08 03:16:10;;;;;;;1999.90;999.90;;;21.10;99.90;;;;;;5085715;28;20399;-79
2023/09/08 03:18:36;;;;;;;1999.90;999.90;;;21.00;99.90;;;;;;5079082;28;20113;-79
2023/09/08 03:21:08;;;;;;;1999.90;999.90;;;20.90;99.90;;;;;;5078387;28;20055;-75
2023/09/08 03:23:38;;;;;;;1999.90;999.90;;;20.80;99.90;;;;;;5083351;28;20019;-74
2023/09/08 03:26:04;;;;;;;1999.90;999.90;;;20.80;99.90;;;;;;5099315;28;20032;-79
2023/09/08 03:28:30;;;;;;;1999.90;999.90;;;20.70;99.90;;;;;;5099517;28;20547;-74
2023/09/08 03:30:56;;;;;;;1999.90;999.90;;;20.70;99.90;;;;;;5099197;28;20495;-79
2023/09/08 03:33:21;;;;;;;1999.90;999.90;;;20.80;99.90;;;;;;5099170;28;20035;-79
2023/09/08 03:35:47;;;;;;;1999.90;999.90;;;20.80;99.90;;;;;;5098931;28;20024;-74
2023/09/08 03:38:12;;;;;;;1999.90;999.90;;;20.90;99.90;;;;;;5097805;28;20070;-79
2023/09/08 03:40:38;;;;;;;1999.90;999.90;;;21.00;99.90;;;;;;5099025;28;20024;-79
2023/09/08 03:43:04;;;;;;;1999.90;999.90;;;21.00;99.90;;;;;;5099085;28;20085;-79
2023/09/08 03:45:30;;;;;;;1999.90;999.90;;;21.00;99.90;;;;;;5097900;28;20020;-79
2023/09/08 03:47:55;;;;;;;1999.90;999.90;;;21.00;99.90;;;;;;5096023;28;20074;-74
2023/09/08 03:50:21;;;;;;;1999.90;999.90;;;21.10;99.90;;;;;;5095520;28;20391;-74
2023/09/08 03:52:47;;;;;;;1999.90;999.90;;;21.10;99.90;;;;;;5095860;28;20051;-78
2023/09/08 03:55:12;;;;;;;1999.90;999.90;;;21.10;99.90;;;;;;5081712;28;20028;-79
2023/09/08 03:57:38;;;;;;;1999.90;999.90;;;21.10;99.90;;;;;;5075278;28;20031;-79
2023/09/08 04:00:07;;;;;;;1999.90;999.90;;;21.10;99.90;;;;;;5075813;28;20025;-74
2023/09/08 04:02:33;;;;;;;1999.90;999.90;;;21.10;99.90;;;;;;5075144;28;20514;-74
2023/09/08 04:04:59;;;;;;;1999.90;999.90;;;21.10;99.90;;;;;;5075223;28;20076;-74
2023/09/08 04:07:24;;;;;;;1999.90;999.90;;;21.00;99.90;;;;;;5081798;28;20024;-79
2023/09/08 04:09:50;;;;;;;1999.90;999.90;;;21.00;99.90;;;;;;5091871;28;20034;-79
2023/09/08 04:12:16;;;;;;;1999.90;999.90;;;20.90;99.90;;;;;;5077499;28;20078;-75
2023/09/08 04:14:41;;;;;;;1999.90;999.90;;;20.90;99.90;;;;;;5080583;28;20035;-74
2023/09/08 04:17:08;;;;;;;1999.90;999.90;;;20.90;99.90;;;;;;5085198;28;20028;-79
2023/09/08 04:19:33;;;;;;;1999.90;999.90;;;20.90;99.90;;;;;;5075047;28;20123;-79
2023/09/08 04:21:59;;;;;;;1999.90;999.90;;;20.90;99.90;;;;;;5074868;28;20499;-79
2023/09/08 04:24:24;;;;;;;1999.90;999.90;;;20.80;99.90;;;;;;5086407;28;20107;-79
2023/09/08 04:26:50;;;;;;;1999.90;999.90;;;20.90;99.90;;;;;;5095206;28;20024;-75
2023/09/08 04:29:15;;;;;;;1999.90;999.90;;;20.90;99.90;;;;;;5095191;28;20028;-74
2023/09/08 04:31:41;;;;;;;1999.90;999.90;;;20.90;99.90;;;;;;5095144;28;20036;-79
2023/09/08 04:34:07;;;;;;;1999.90;999.90;;;21.00;99.90;;;;;;5095282;28;20510;-79
2023/09/08 04:36:32;;;;;;;1999.90;999.90;;;21.10;99.90;;;;;;5094823;28;20154;-79
2023/09/08 04:38:58;;;;;;;1999.90;999.90;;;21.10;99.90;;;;;;5094798;28;20146;-74
2023/09/08 04:41:23;;;;;;;1999.90;999.90;;;21.00;99.90;;;;;;5094953;28;20395;-74
2023/09/08 04:43:49;;;;;;;1999.90;999.90;;;21.00;99.90;;;;;;5094922;28;20028;-79
2023/09/08 04:46:15;;;;;;;1999.90;999.90;;;21.10;99.90;;;;;;5094852;28;20031;-79
2023/09/08 04:48:42;;;;;;;1999.90;999.90;;;21.10;99.90;;;;;;5094902;28;20098;-79
2023/09/08 04:51:07;;;;;;;1999.90;999.90;;;21.20;99.90;;;;;;5094484;28;20503;-79
2023/09/08 04:53:33;;;;;;;1999.90;999.90;;;21.10;99.90;;;;;;5094703;28;20020;-74
2023/09/08 04:55:59;;;;;;;1999.90;999.90;;;21.20;99.90;;;;;;5094834;28;20078;-75
2023/09/08 04:58:25;;;;;;;1999.90;999.90;;;21.20;99.90;;;;;;5094070;28;20020;-79
2023/09/08 05:00:51;;;;;;;1999.90;999.90;;;21.20;99.90;;;;;;5094507;28;20043;-79
2023/09/08 05:03:16;;;;;;;1999.90;999.90;;;21.30;99.90;;;;;;5094471;28;20423;-79
2023/09/08 05:05:42;;;;;;;1999.90;999.90;;;21.30;99.90;;;;;;5094230;28;20137;-74
2023/09/08 05:08:07;;;;;;;1999.90;999.90;;;21.30;99.90;;;;;;5090454;28;20027;-74
2023/09/08 05:10:33;;;;;;;1999.90;999.90;;;21.30;99.90;;;;;;5073966;28;20023;-79
2023/09/08 05:12:59;;;;;;;1999.90;999.90;;;21.40;99.90;;;;;;5076999;28;20043;-79
2023/09/08 05:15:25;;;;;;;1999.90;999.90;;;21.40;99.90;;;;;;5081472;28;20506;-79
2023/09/08 05:17:51;;;;;;;1999.90;999.90;;;21.40;99.90;;;;;;5082747;28;20380;-75
2023/09/08 05:20:16;;;;;;;1999.90;999.90;;;21.40;99.90;;;;;;5073867;28;20016;-75
2023/09/08 05:22:45;;;;;;;1999.90;999.90;;;21.40;99.90;;;;;;5073750;28;20024;-79
2023/09/08 05:25:10;;;;;;;1999.90;999.90;;;21.40;99.90;;;;;;5091843;28;20050;-79
2023/09/08 05:27:36;;;;;;;1999.90;999.90;;;21.40;99.90;;;;;;5093915;28;20067;-79
2023/09/08 05:30:02;;;;;;;1999.90;999.90;;;21.40;99.90;;;;;;5094506;28;20475;-79
2023/09/08 05:32:27;;;;;;;1999.90;999.90;;;21.40;99.90;;;;;;5094081;28;20035;-74
2023/09/08 05:34:53;;;;;;;1999.90;999.90;;;21.40;99.90;;;;;;5083156;28;20403;-79
2023/09/08 05:37:18;;;;;;;1999.90;999.90;;;21.40;99.90;;;;;;5073933;28;20032;-78
2023/09/08 05:39:44;;;;;;;1999.90;999.90;;;21.40;99.90;;;;;;5073510;28;20017;-79
2023/09/08 05:42:10;;;;;;;1999.90;999.90;;;21.40;99.90;;;;;;5077767;28;20078;-80
2023/09/08 05:44:35;;;;;;;1999.90;999.90;;;21.40;99.90;;;;;;5082364;28;20036;-74
2023/09/08 05:47:01;;;;;;;1999.90;999.90;;;21.40;99.90;;;;;;5072059;28;20025;-74
2023/09/08 05:49:27;;;;;;;1999.90;999.90;;;21.40;99.90;;;;;;5073499;28;20039;-79
2023/09/08 05:51:53;;;;;;;1999.90;999.90;;;21.40;99.90;;;;;;5073315;28;20028;-79
2023/09/08 05:54:18;;;;;;;1999.90;999.90;;;21.40;99.90;;;;;;5073076;28;20070;-79
2023/09/08 05:56:44;;;;;;;1999.90;999.90;;;21.40;99.90;;;;;;5073399;28;20115;-75
2023/09/08 05:59:09;;;;;;;1999.90;999.90;;;21.50;99.90;;;;;;5073295;28;20025;-74
2023/09/08 06:01:36;;;;;;;1999.90;999.90;;;21.60;99.90;;;;;;5071034;28;20017;-79
2023/09/08 06:04:02;;;;;;;1999.90;999.90;;;21.60;99.90;;;;;;5071319;28;20043;-79
2023/09/08 06:06:29;;;;;;;1999.90;999.90;;;21.60;99.90;;;;;;5072996;28;20479;-79
2023/09/08 06:08:54;;;;;;;1999.90;999.90;;;21.70;99.90;;;;;;5072072;28;20021;-79
2023/09/08 06:11:20;;;;;;;1999.90;999.90;;;21.70;99.90;;;;;;5072858;28;20043;-75
2023/09/08 06:13:45;;;;;;;1999.90;999.90;;;21.70;99.90;;;;;;5075387;28;20043;-79
2023/09/08 06:16:11;;;;;;;1999.90;999.90;;;21.80;99.90;;;;;;5082474;28;20042;-79
2023/09/08 06:18:39;;;;;;;1999.90;999.90;;;21.80;99.90;;;;;;5088106;28;20478;-79
2023/09/08 06:21:08;;;;;;;1999.90;999.90;;;21.90;99.90;;;;;;5090734;28;20049;-79
2023/09/08 06:23:35;;;;;;;1999.90;999.90;;;22.00;99.90;;;;;;5072497;28;20027;-74
2023/09/08 06:26:01;;;;;;;1999.90;999.90;;;22.10;99.90;;;;;;5079863;28;20376;-75
2023/09/08 06:28:27;;;;;;;1999.90;999.90;;;22.20;99.90;;;;;;5090241;28;20024;-79
2023/09/08 06:30:53;;;;;;;1999.90;999.90;;;22.30;99.90;;;;;;5092922;28;20473;-74
2023/09/08 06:33:19;;;;;;;1999.90;999.90;;;22.40;99.90;;;;;;5072988;28;20028;-79
2023/09/08 06:35:46;;;;;;;1999.90;999.90;;;22.40;99.90;;;;;;5071875;28;20444;-76
2023/09/08 06:38:11;;;;;;;1999.90;999.90;;;22.60;99.90;;;;;;5083299;28;20024;-74
2023/09/08 06:40:37;;;;;;;1999.90;999.90;;;22.70;99.90;;;;;;5072544;28;20032;-79
2023/09/08 06:43:03;;;;;;;1999.90;999.90;;;22.80;99.90;;;;;;5071047;28;20025;-74
2023/09/08 06:45:29;;;;;;;1999.90;999.90;;;22.90;99.90;;;;;;5072498;28;20025;-79
2023/09/08 06:47:55;;;;;;;1999.90;999.90;;;23.00;99.90;;;;;;5072508;28;20479;-79
2023/09/08 06:50:22;;;;;;;1999.90;999.90;;;23.10;99.90;;;;;;5072868;28;20510;-75
2023/09/08 06:52:48;;;;;;;1999.90;999.90;;;23.20;99.90;;;;;;5072321;28;20116;-78
2023/09/08 06:55:16;;;;;;;1999.90;999.90;;;23.30;99.90;;;;;;5072562;28;20025;-79
2023/09/08 06:57:42;;;;;;;1999.90;999.90;;;23.40;99.90;;;;;;5072240;28;20115;-79
2023/09/08 07:00:08;;;;;;;1999.90;999.90;;;23.40;99.90;;;;;;5072109;28;20085;-78
2023/09/08 07:02:34;;;;;;;1999.90;999.90;;;23.50;99.90;;;;;;5071250;28;20035;-75
2023/09/08 07:05:00;;;;;;;1999.90;999.90;;;23.40;99.90;;;;;;5071681;28;20120;-75
2023/09/08 07:07:26;;;;;;;1999.90;999.90;;;23.40;99.90;;;;;;5070872;28;20047;-79
2023/09/08 07:09:51;;;;;;;1999.90;999.90;;;23.50;99.90;;;;;;5072053;28;20036;-79
2023/09/08 07:12:17;;;;;;;1999.90;999.90;;;23.60;99.90;;;;;;5071987;28;20024;-79
2023/09/08 07:14:43;;;;;;;1999.90;999.90;;;23.80;99.90;;;;;;5078713;28;20060;-79
2023/09/08 07:17:08;;;;;;;1999.90;999.90;;;24.00;99.90;;;;;;5082048;28;20036;-75
2023/09/08 07:19:34;;;;;;;1999.90;999.90;;;24.20;99.90;;;;;;5091202;28;20108;-79
2023/09/08 07:21:59;;;;;;;1999.90;999.90;;;24.40;99.90;;;;;;5085732;28;20016;-79
2023/09/08 07:24:25;;;;;;;1999.90;999.90;;;24.60;99.90;;;;;;5089510;28;20028;-79
2023/09/08 07:26:51;;;;;;;1999.90;999.90;;;24.80;99.90;;;;;;5082026;28;20025;-79
2023/09/08 07:29:16;;;;;;;1999.90;999.90;;;24.80;99.90;;;;;;5075217;28;20376;-79
2023/09/08 07:31:42;;;;;;;1999.90;999.90;;;24.90;99.90;;;;;;5083717;28;20118;-75
2023/09/08 07:34:07;;;;;;;1999.90;999.90;;;25.00;99.90;;;;;;5075469;28;20036;-79
2023/09/08 07:36:35;;;;;;;1999.90;999.90;;;25.10;99.90;;;;;;5074998;28;20020;-79
2023/09/08 07:39:01;;;;;;;1999.90;999.90;;;25.00;99.90;;;;;;5075393;28;20032;-79
2023/09/08 07:41:26;;;;;;;1999.90;999.90;;;24.90;99.90;;;;;;5075507;28;20104;-79
2023/09/08 07:43:52;;;;;;;1999.90;999.90;;;24.90;99.90;;;;;;5060040;28;20035;-75
2023/09/08 07:46:17;;;;;;;1999.90;999.90;;;25.00;99.90;;;;;;5076168;28;20561;-79
2023/09/08 07:48:43;;;;;;;1999.90;999.90;;;24.80;99.90;;;;;;5082624;28;20127;-79
2023/09/08 07:51:08;;;;;;;1999.90;999.90;;;24.80;99.90;;;;;;5076287;28;20031;-75
2023/09/08 07:53:34;;;;;;;1999.90;999.90;;;24.90;99.90;;;;;;5084763;28;20491;-79
2023/09/08 07:56:01;;;;;;;1999.90;999.90;;;24.90;99.90;;;;;;5075022;28;20064;-75
2023/09/08 07:58:26;;;;;;;1999.90;999.90;;;25.00;99.90;;;;;;5074730;28;20075;-79
2023/09/08 08:00:52;;;;;;;1999.90;999.90;;;25.10;99.90;;;;;;5077514;28;20028;-79
2023/09/08 08:03:17;;;;;;;1999.90;999.90;;;25.10;99.90;;;;;;5075312;28;20036;-75
2023/09/08 08:05:43;;;;;;;1999.90;999.90;;;25.10;99.90;;;;;;5075050;28;20036;-79
2023/09/08 08:08:09;;;;;;;1999.90;999.90;;;25.00;99.90;;;;;;5089149;28;20024;-75
2023/09/08 08:10:35;;;;;;;1999.90;999.90;;;25.10;99.90;;;;;;5077499;28;20021;-75
2023/09/08 08:13:00;;;;;;;1999.90;999.90;;;25.20;99.90;;;;;;5075819;28;20451;-75
2023/09/08 08:15:40;;;;;;;1999.90;999.90;;;25.20;99.90;;;;;;5084676;28;20050;-79
2023/09/08 08:18:06;;;;;;;1999.90;999.90;;;25.20;99.90;;;;;;5095586;28;20028;-75
2023/09/08 08:20:35;;;;;;;1999.90;999.90;;;25.20;99.90;;;;;;5078275;28;20146;-75
2023/09/08 08:23:04;;;;;;;1999.90;999.90;;;25.30;99.90;;;;;;5074584;28;20046;-75
2023/09/08 08:25:30;;;;;;;1999.90;999.90;;;25.20;99.90;;;;;;5071010;28;20028;-80
2023/09/08 08:27:58;;;;;;;1999.90;999.90;;;25.30;99.90;;;;;;5075025;28;20051;-80
2023/09/08 08:30:24;;;;;;;1999.90;999.90;;;25.30;99.90;;;;;;5073924;28;20029;-80
2023/09/08 08:32:51;;;;;;;1999.90;999.90;;;25.30;99.90;;;;;;5073283;28;20021;-79
2023/09/08 08:35:17;;;;;;;1999.90;999.90;;;25.40;99.90;;;;;;5073172;28;20388;-75
2023/09/08 08:37:43;;;;;;;1999.90;999.90;;;25.40;99.90;;;;;;5072939;28;20556;-75
2023/09/08 08:40:12;;;;;;;1999.90;999.90;;;25.60;99.90;;;;;;5073326;28;20021;-75
2023/09/08 08:42:39;;;;;;;1999.90;999.90;;;26.20;99.90;;;;;;5080723;28;20077;-80
2023/09/08 08:45:05;;;;;;;1999.90;999.90;;;26.30;99.90;;;;;;5081392;28;20039;-74
2023/09/08 08:47:31;;;;;;;1999.90;999.90;;;26.10;99.90;;;;;;5074188;28;20028;-74
2023/09/08 08:50:01;;;;;;;1999.90;999.90;;;26.10;99.90;;;;;;5074966;28;20032;-75
2023/09/08 08:52:27;;;;;;;1999.90;999.90;;;26.00;99.90;;;;;;5074640;28;20048;-80
2023/09/08 08:54:54;;;;;;;1999.90;999.90;;;26.00;99.90;;;;;;5075094;28;20043;-80
2023/09/08 08:57:21;;;;;;;1999.90;999.90;;;26.20;99.90;;;;;;5075016;28;20023;-80
2023/09/08 08:59:49;;;;;;;1999.90;999.90;;;26.10;99.90;;;;;;5074051;28;20023;-75
2023/09/08 09:02:15;;;;;;;1999.90;999.90;;;26.10;99.90;;;;;;5073547;28;20020;-75
2023/09/08 09:04:41;;;;;;;1999.90;999.90;;;25.90;99.90;;;;;;5071423;28;20055;-75
2023/09/08 09:07:07;;;;;;;1999.90;999.90;;;25.90;99.90;;;;;;5073766;28;20024;-75
2023/09/08 09:09:33;;;;;;;1999.90;999.90;;;26.10;99.90;;;;;;5073753;28;20032;-79
2023/09/08 09:11:59;;;;;;;1999.90;999.90;;;26.40;99.90;;;;;;5073686;28;20031;-75
2023/09/08 09:14:25;;;;;;;1999.90;999.90;;;28.20;99.90;;;;;;5079813;28;20027;-75
2023/09/08 09:16:50;;;;;;;1999.90;999.90;;;29.80;99.90;;;;;;5078906;28;20108;-78
2023/09/08 09:19:31;;;;;;;1999.90;999.90;;;30.70;98.30;;;;;;5072918;28;20074;-73
2023/09/08 09:21:58;;;;;;;1999.90;999.90;;;30.40;98.50;;;;;;5071606;28;20495;-78
2023/09/08 09:24:32;;;;;;;1999.90;999.90;;;30.20;98.20;;;;;;5081111;28;20028;-73
2023/09/08 09:26:59;;;;;;;1999.90;999.90;;;31.40;97.30;;;;;;5073654;28;20039;-78
2023/09/08 09:29:25;;;;;;;1999.90;999.90;;;31.90;96.40;;;;;;5073747;28;20476;-78
2023/09/08 09:31:55;;;;;;;1999.90;999.90;;;31.60;96.10;;;;;;5073620;28;20024;-78
2023/09/08 09:34:21;;;;;;;1999.90;999.90;;;31.90;96.10;;;;;;5073250;28;20440;-74
2023/09/08 09:36:49;;;;;;;1999.90;999.90;;;32.00;96.10;;;;;;5071692;28;20078;-79
2023/09/08 09:39:23;;;;;;;1999.90;999.90;;;31.80;95.30;;;;;;5073447;28;20468;-79
2023/09/08 09:41:49;;;;;;;1999.90;999.90;;;31.80;95.40;;;;;;5073257;28;20013;-73
2023/09/08 09:44:16;;;;;;;1999.90;999.90;;;31.40;95.60;;;;;;5073186;28;20020;-73
2023/09/08 09:46:48;;;;;;;1999.90;999.90;;;31.20;96.10;;;;;;5073069;28;20052;-78
2023/09/08 09:49:17;;;;;;;1999.90;999.90;;;30.80;96.10;;;;;;5073048;28;20021;-78
2023/09/08 09:51:44;;;;;;;1999.90;999.90;;;30.60;96.40;;;;;;5090715;28;20039;-73
2023/09/08 09:54:11;;;;;;;1999.90;999.90;;;30.70;96.60;;;;;;5077991;28;20034;-78
2023/09/08 09:56:38;;;;;;;1999.90;999.90;;;30.50;96.80;;;;;;5080468;28;20036;-78
2023/09/08 09:59:05;;;;;;;1999.90;999.90;;;30.20;97.00;;;;;;5076875;28;20060;-73
2023/09/08 10:01:32;;;;;;;1999.90;999.90;;;30.00;97.20;;;;;;5081197;28;20372;-78
2023/09/08 10:03:58;;;;;;;1999.90;999.90;;;30.20;97.40;;;;;;5081578;28;20044;-73
2023/09/08 10:06:25;;;;;;;1999.90;999.90;;;30.40;97.60;;;;;;5071032;28;20066;-73
2023/09/08 10:08:52;;;;;;;1999.90;999.90;;;30.90;96.90;;;;;;5075211;28;20046;-78
2023/09/08 10:11:21;;;;;;;1999.90;999.90;;;30.70;97.20;;;;;;5082623;28;20039;-78
2023/09/08 10:13:49;;;;;;;1999.90;999.90;;;31.10;96.60;;;;;;5084725;28;20449;-78
2023/09/08 10:16:16;;;;;;;1999.90;999.90;;;32.10;96.20;;;;;;5083742;28;20035;-79
2023/09/08 10:18:45;;;;;;;1999.90;999.90;;;32.30;95.40;;;;;;5081311;28;20055;-73
2023/09/08 10:21:13;;;;;;;1999.90;999.90;;;32.00;95.20;;;;;;5072828;28;20419;-79
2023/09/08 10:23:44;;;;;;;1999.90;999.90;;;31.80;96.00;;;;;;5072392;28;20024;-79
2023/09/08 10:26:11;;;;;;;1999.90;999.90;;;31.80;95.80;;;;;;5072331;28;20040;-78
2023/09/08 10:28:38;;;;;;;1999.90;999.90;;;31.80;95.90;;;;;;5072898;28;20040;-73
2023/09/08 10:31:05;;;;;;;1999.90;999.90;;;31.60;95.90;;;;;;5078000;28;20381;-75
2023/09/08 10:33:32;;;;;;;1999.90;999.90;;;32.30;95.90;;;;;;5075846;28;20461;-76
2023/09/08 10:35:59;;;;;;;1999.90;999.90;;;31.40;95.50;;;;;;5080077;28;20028;-80
2023/09/08 10:38:28;;;;;;;1999.90;999.90;;;31.00;96.10;;;;;;5069788;28;20467;-80
2023/09/08 10:41:16;;;;;;;1999.90;999.90;;;31.10;96.00;;;;;;5080284;28;20037;-80
2023/09/08 10:44:02;;;;;;;1999.90;999.90;;;31.60;96.10;;;;;;5063029;28;20033;-76
2023/09/08 10:46:30;;;;;;;1999.90;999.90;;;32.10;95.90;;;;;;5071981;28;20154;-76
2023/09/08 10:49:06;;;;;;;1999.90;999.90;;;31.90;95.60;;;;;;5078359;28;20035;-80
2023/09/08 10:51:33;;;;;;;1999.90;999.90;;;32.20;96.40;;;;;;5077627;28;20103;-80
2023/09/08 10:53:58;;;;;;;1999.90;999.90;;;31.80;95.80;;;;;;5078183;28;20107;-80
2023/09/08 10:56:46;;;;;;;1999.90;999.90;;;31.80;96.40;;;;;;5075077;28;20530;-75
2023/09/08 10:59:12;;;;;;;1999.90;999.90;;;31.60;96.30;;;;;;5076288;28;20028;-75
2023/09/08 11:01:37;;;;;;;1999.90;999.90;;;31.20;96.40;;;;;;5076213;28;20376;-79
2023/09/08 11:04:08;;;;;;;1999.90;999.90;;;31.40;96.70;;;;;;5074952;28;20122;-79
2023/09/08 11:06:34;;;;;;;1999.90;999.90;;;31.40;96.60;;;;;;5074922;28;20033;-79
2023/09/08 11:09:07;;;;;;;1999.90;999.90;;;31.20;96.70;;;;;;5076332;28;20033;-76
2023/09/08 11:11:33;;;;;;;1999.90;999.90;;;30.80;96.90;;;;;;5076271;28;20028;-76
2023/09/08 11:13:59;;;;;;;1999.90;999.90;;;31.30;96.80;;;;;;5082378;28;20036;-79
2023/09/08 11:16:29;;;;;;;1999.90;999.90;;;31.10;96.90;;;;;;5092762;28;20038;-79
2023/09/08 11:18:55;;;;;;;1999.90;999.90;;;31.30;96.90;;;;;;5085997;28;20017;-79
2023/09/08 11:21:20;;;;;;;1999.90;999.90;;;31.30;96.80;;;;;;5075665;28;20028;-79
2023/09/08 11:23:47;;;;;;;1999.90;999.90;;;31.20;97.10;;;;;;5081747;28;20048;-76
2023/09/08 11:26:13;;;;;;;1999.90;999.90;;;31.50;96.80;;;;;;5084347;28;20037;-76
2023/09/08 11:28:39;;;;;;;1999.90;999.90;;;32.00;95.90;;;;;;5075512;28;20036;-79
2023/09/08 11:31:04;;;;;;;1999.90;999.90;;;32.00;96.10;;;;;;5075978;28;20115;-79
2023/09/08 11:33:34;;;;;;;1999.90;999.90;;;31.90;95.80;;;;;;5079685;28;20076;-79
2023/09/08 11:36:00;;;;;;;1999.90;999.90;;;31.40;96.10;;;;;;5064921;28;20086;-76
2023/09/08 11:38:27;;;;;;;1999.90;999.90;;;31.20;96.50;;;;;;5077253;28;20021;-76
2023/09/08 11:40:54;;;;;;;1999.90;999.90;;;31.20;96.30;;;;;;5084954;28;20053;-79
2023/09/08 11:43:20;;;;;;;1999.90;999.90;;;31.40;96.70;;;;;;5075639;28;20103;-79
2023/09/08 11:45:46;;;;;;;1999.90;999.90;;;31.60;96.30;;;;;;5082163;28;20029;-77
2023/09/08 11:48:14;;;;;;;1999.90;999.90;;;31.20;96.30;;;;;;5079819;28;20067;-76
2023/09/08 11:50:44;;;;;;;1999.90;999.90;;;30.90;96.40;;;;;;5076397;28;20442;-77
2023/09/08 11:53:10;;;;;;;1999.90;999.90;;;31.20;96.60;;;;;;5074529;28;20020;-78
2023/09/08 11:55:36;;;;;;;1999.90;999.90;;;30.90;96.30;;;;;;5087103;28;20040;-78